Time;durP1;ratioP1;P1;durP2;ratioP2;P2;SDS_P1;SDS_P2;PMS_P1;PMS_P2;Temp;Humidity;BMP_temperature;BMP_pressure;BME280_temperature;BME280_humidity;BME280_pressure;Samples;Min_cycle;Max_cycle;Signal;HPM_P1;HPM_P2
2022/06/05 00:01:19;;;;;;;1.65;1.17;;;;;;;26.98;53.96;100752.16;5096168;28;20063;-72
2022/06/05 00:03:48;;;;;;;3.33;1.02;;;;;;;26.97;54.04;100759.34;5108960;28;20118;-71
2022/06/05 00:06:24;;;;;;;3.88;1.30;;;;;;;26.98;53.86;100765.50;5106917;28;20037;-71
2022/06/05 00:09:05;;;;;;;2.45;1.17;;;;;;;26.96;53.88;100763.09;5108227;28;20594;-70
2022/06/05 00:11:52;;;;;;;2.08;0.90;;;;;;;26.97;54.00;100763.91;5105747;28;20058;-71
2022/06/05 00:14:18;;;;;;;2.33;1.08;;;;;;;26.97;53.78;100770.06;5106767;28;20027;-70
2022/06/05 00:16:44;;;;;;;3.22;1.20;;;;;;;26.97;53.76;100767.38;5101890;28;20032;-71
2022/06/05 00:19:09;;;;;;;3.53;1.40;;;;;;;26.98;53.97;100770.88;5104718;28;20034;-71
2022/06/05 00:21:35;;;;;;;3.15;1.08;;;;;;;26.98;53.93;100768.19;5101733;28;20403;-70
2022/06/05 00:24:00;;;;;;;3.15;1.25;;;;;;;26.96;53.63;100768.44;5105218;28;20110;-70
2022/06/05 00:26:36;;;;;;;1.95;1.13;;;;;;;26.96;53.85;100767.63;5108681;28;20140;-70
2022/06/05 00:29:27;;;;;;;3.75;1.25;;;;;;;26.94;53.90;100781.22;5107543;28;20039;-70
2022/06/05 00:32:18;;;;;;;4.07;1.35;;;;;;;26.95;53.92;100782.00;5090447;28;20109;-70
2022/06/05 00:34:43;;;;;;;2.45;1.15;;;;;;;26.93;53.80;100773.47;5096361;28;20105;-71
2022/06/05 00:37:47;;;;;;;2.47;0.85;;;;;;;26.95;53.81;100771.31;5100255;28;20020;-70
2022/06/05 00:40:37;;;;;;;1.63;0.98;;;;;;;26.93;53.91;100773.47;5043153;28;20454;-72
2022/06/05 00:43:10;;;;;;;1.88;0.90;;;;;;;26.93;53.80;100768.13;5028047;28;20177;-71
2022/06/05 00:45:36;;;;;;;4.07;1.30;;;;;;;26.95;53.76;100763.31;5041318;28;20041;-71
2022/06/05 00:48:02;;;;;;;1.67;1.05;;;;;;;26.96;53.65;100762.28;5034840;28;22013;-71
2022/06/05 00:50:30;;;;;;;3.00;1.20;;;;;;;26.95;53.68;100757.94;5043901;28;20121;-71
2022/06/05 00:53:00;;;;;;;2.38;1.10;;;;;;;26.96;53.67;100754.25;5032957;28;20033;-70
2022/06/05 00:55:29;;;;;;;1.73;0.80;;;;;;;26.94;53.56;100757.16;5040644;28;20254;-71
2022/06/05 00:57:56;;;;;;;2.88;1.13;;;;;;;26.95;53.51;100747.25;5022249;28;20044;-72
2022/06/05 01:00:27;;;;;;;5.35;1.55;;;;;;;26.95;53.69;100744.59;5033252;28;20025;-72
2022/06/05 01:02:55;;;;;;;2.88;1.23;;;;;;;26.94;53.73;100743.78;5030051;28;20509;-71
2022/06/05 01:05:22;;;;;;;2.38;1.40;;;;;;;26.94;53.68;100740.31;5031103;28;20048;-71
2022/06/05 01:07:48;;;;;;;2.03;1.23;;;;;;;26.93;53.47;100744.06;5035046;28;20457;-72
2022/06/05 01:10:15;;;;;;;2.28;0.98;;;;;;;26.94;53.46;100743.00;5041362;28;20043;-72
2022/06/05 01:13:22;;;;;;;2.90;1.08;;;;;;;26.91;53.55;100740.81;5098169;28;20067;-72
2022/06/05 01:16:25;;;;;;;3.35;1.10;;;;;;;26.87;53.37;100727.13;5030057;28;20127;-72
2022/06/05 01:19:15;;;;;;;3.45;1.40;;;;;;;26.89;53.46;100729.56;5034744;28;20056;-72
2022/06/05 01:22:24;;;;;;;4.07;1.40;;;;;;;26.87;53.32;100715.63;5033471;28;20120;-71
2022/06/05 01:25:11;;;;;;;2.78;0.93;;;;;;;26.84;53.41;100703.56;5034581;28;20091;-72
2022/06/05 01:27:41;;;;;;;2.85;0.80;;;;;;;26.86;53.34;100706.78;5037078;28;20512;-71
2022/06/05 01:30:13;;;;;;;2.70;1.17;;;;;;;26.88;53.39;100712.72;5038928;28;20462;-72
2022/06/05 01:33:13;;;;;;;2.58;1.00;;;;;;;26.88;53.55;100709.22;5025450;28;20220;-72
2022/06/05 01:35:56;;;;;;;2.47;1.00;;;;;;;26.86;53.31;100708.66;4993817;28;20092;-72
2022/06/05 01:38:31;;;;;;;3.30;0.98;;;;;;;26.86;53.30;100708.66;5035104;28;20048;-72
2022/06/05 01:41:01;;;;;;;3.22;0.73;;;;;;;26.86;53.51;100703.31;5038664;28;20037;-72
2022/06/05 01:43:34;;;;;;;1.92;0.85;;;;;;;26.87;53.53;100707.59;5036148;28;20040;-73
2022/06/05 01:46:14;;;;;;;3.78;1.33;;;;;;;26.86;53.41;100708.66;5039405;28;20045;-72
2022/06/05 01:48:45;;;;;;;1.67;1.00;;;;;;;26.87;53.33;100710.28;5035093;28;20548;-72
2022/06/05 01:51:19;;;;;;;4.55;1.05;;;;;;;26.88;53.47;100712.72;5045163;28;20042;-72
2022/06/05 01:53:47;;;;;;;2.38;0.98;;;;;;;26.90;53.15;100715.13;5094526;28;20035;-71
2022/06/05 01:56:25;;;;;;;3.63;1.13;;;;;;;26.88;53.38;100715.38;5096262;28;20032;-72
2022/06/05 01:58:58;;;;;;;2.28;1.00;;;;;;;26.90;53.25;100702.56;5099152;28;20119;-72
2022/06/05 02:01:30;;;;;;;2.58;1.17;;;;;;;26.92;53.33;100702.34;5096366;28;20035;-71
2022/06/05 02:04:01;;;;;;;3.65;0.70;;;;;;;26.92;53.22;100700.47;5103446;28;20107;-72
2022/06/05 02:06:37;;;;;;;4.65;1.25;;;;;;;26.92;53.30;100702.34;5108354;28;20032;-72
2022/06/05 02:09:08;;;;;;;1.83;0.95;;;;;;;26.92;53.23;100702.34;5105118;28;20040;-71
2022/06/05 02:11:34;;;;;;;3.53;1.00;;;;;;;26.92;53.27;100697.78;5107060;28;20467;-72
2022/06/05 02:14:04;;;;;;;5.47;1.58;;;;;;;26.92;53.20;100691.63;5111871;28;20023;-72
2022/06/05 02:16:33;;;;;;;2.50;1.13;;;;;;;26.92;53.33;100696.97;5111156;28;20032;-72
2022/06/05 02:19:01;;;;;;;5.97;1.30;;;;;;;26.93;53.10;100703.94;5107039;28;20421;-72
2022/06/05 02:21:27;;;;;;;1.75;1.17;;;;;;;26.92;53.11;100697.78;5104709;28;20471;-72
2022/06/05 02:23:53;;;;;;;2.95;0.85;;;;;;;26.93;53.03;100685.25;5103667;28;20077;-72
2022/06/05 02:26:18;;;;;;;3.08;1.25;;;;;;;26.93;53.08;100688.72;5111845;28;20041;-72
2022/06/05 02:28:44;;;;;;;3.45;1.00;;;;;;;26.93;53.30;100690.59;5097494;28;20080;-72
2022/06/05 02:31:30;;;;;;;3.90;1.40;;;;;;;26.90;53.39;100694.56;5107450;28;20081;-72
2022/06/05 02:34:07;;;;;;;2.75;1.20;;;;;;;26.91;53.21;100695.38;5109512;28;20037;-73
2022/06/05 02:36:33;;;;;;;2.33;1.00;;;;;;;26.91;53.22;100690.81;5107863;28;20569;-71
2022/06/05 02:39:07;;;;;;;2.60;1.33;;;;;;;26.91;53.33;100692.69;5105826;28;20169;-73
2022/06/05 02:42:09;;;;;;;2.25;1.27;;;;;;;26.90;53.22;100691.06;5098269;28;20065;-73
2022/06/05 02:44:55;;;;;;;2.65;0.93;;;;;;;26.89;53.25;100682.25;5094362;28;20043;-72
2022/06/05 02:47:43;;;;;;;1.50;0.77;;;;;;;26.89;53.30;100678.75;5110489;28;20039;-72
2022/06/05 02:50:24;;;;;;;3.88;1.25;;;;;;;26.90;53.31;100683.06;5097355;28;20036;-72
2022/06/05 02:52:51;;;;;;;3.03;0.90;;;;;;;26.93;53.35;100685.25;5101320;28;20039;-71
2022/06/05 02:55:20;;;;;;;4.10;1.20;;;;;;;26.93;53.25;100688.72;5107170;28;20039;-72
2022/06/05 02:57:46;;;;;;;2.35;1.05;;;;;;;26.95;53.30;100691.13;5106042;28;20399;-72
2022/06/05 03:00:15;;;;;;;2.55;1.02;;;;;;;26.95;53.23;100683.91;5105284;28;20027;-71
2022/06/05 03:05:25;;;;;;;1.42;0.80;;;;;;;26.93;53.18;100678.03;5106466;28;20467;-71
2022/06/05 03:07:50;;;;;;;6.15;1.15;;;;;;;26.95;53.09;100691.94;5104286;28;20035;-72
2022/06/05 03:10:16;;;;;;;2.08;0.90;;;;;;;26.94;53.33;100694.88;5099111;28;20507;-72
2022/06/05 03:12:41;;;;;;;2.85;1.40;;;;;;;26.94;53.12;100694.88;5109134;28;20131;-73
2022/06/05 03:15:07;;;;;;;2.00;1.20;;;;;;;26.94;53.12;100690.31;5102178;28;20503;-71
2022/06/05 03:17:33;;;;;;;4.30;1.27;;;;;;;26.93;53.19;100685.25;5095875;28;20035;-72
2022/06/05 03:19:59;;;;;;;2.35;1.48;;;;;;;26.93;52.85;100690.59;5106088;28;20024;-73
2022/06/05 03:22:25;;;;;;;2.35;1.13;;;;;;;26.92;53.35;100691.63;5100139;28;20119;-72
2022/06/05 03:24:51;;;;;;;3.05;1.30;;;;;;;26.92;52.94;100687.09;5100858;28;20019;-72
2022/06/05 03:27:17;;;;;;;4.10;1.60;;;;;;;26.92;53.06;100686.28;5091408;28;20402;-72
2022/06/05 03:29:42;;;;;;;2.83;1.45;;;;;;;26.90;53.19;100673.16;5092706;28;20043;-72
2022/06/05 03:32:08;;;;;;;2.65;1.38;;;;;;;26.89;53.29;100666.22;5096837;28;20028;-72
2022/06/05 03:34:33;;;;;;;3.20;1.15;;;;;;;26.89;53.07;100668.06;5098522;28;20031;-72
2022/06/05 03:36:58;;;;;;;3.65;1.77;;;;;;;26.89;53.23;100670.75;5100178;28;20044;-72
2022/06/05 03:39:24;;;;;;;1.77;0.80;;;;;;;26.87;53.30;100657.63;5087470;28;20024;-72
2022/06/05 03:41:49;;;;;;;1.60;1.23;;;;;;;26.87;53.32;100654.13;5092304;28;20076;-71
2022/06/05 03:44:15;;;;;;;5.00;1.35;;;;;;;26.87;53.29;100648.78;5105530;28;20040;-72
2022/06/05 03:46:40;;;;;;;2.22;1.17;;;;;;;26.86;53.11;100639.16;5104321;28;20032;-72
2022/06/05 03:49:10;;;;;;;2.85;1.20;;;;;;;26.86;53.42;100636.50;5106790;28;20092;-72
2022/06/05 03:51:36;;;;;;;3.78;1.25;;;;;;;26.85;53.46;100633.00;5101684;28;20318;-72
2022/06/05 03:54:02;;;;;;;3.72;1.63;;;;;;;26.84;53.42;100634.06;5105591;28;20038;-72
2022/06/05 03:56:29;;;;;;;2.97;1.40;;;;;;;26.86;53.22;100645.31;5097332;28;20036;-72
2022/06/05 03:58:55;;;;;;;3.63;1.30;;;;;;;26.86;53.24;100647.19;5095796;28;21498;-72
2022/06/05 04:01:23;;;;;;;7.28;2.13;;;;;;;26.87;53.39;100651.47;5105285;28;20028;-72
2022/06/05 04:03:49;;;;;;;3.03;1.42;;;;;;;26.87;53.38;100651.47;5108581;28;20055;-72
2022/06/05 04:06:17;;;;;;;1.88;1.00;;;;;;;26.87;53.33;100652.28;5104647;28;20070;-72
2022/06/05 04:08:43;;;;;;;3.03;1.27;;;;;;;26.86;53.44;100645.31;5102793;28;20110;-73
2022/06/05 04:11:12;;;;;;;4.35;1.63;;;;;;;26.86;53.24;100649.84;5103966;28;20156;-72
2022/06/05 04:13:37;;;;;;;3.33;1.85;;;;;;;26.86;53.28;100649.84;5093006;28;20498;-72
2022/06/05 04:16:32;;;;;;;3.72;1.75;;;;;;;26.84;53.29;100633.25;5103289;28;20032;-71
2022/06/05 04:18:59;;;;;;;3.83;1.35;;;;;;;26.85;53.33;100632.19;5073635;28;20175;-72
2022/06/05 04:21:28;;;;;;;3.15;1.33;;;;;;;26.86;53.41;100633.81;5084395;28;20126;-72
2022/06/05 04:23:55;;;;;;;4.80;1.75;;;;;;;26.86;53.55;100639.16;5106493;28;20031;-71
2022/06/05 04:26:23;;;;;;;11.20;2.47;;;;;;;26.86;53.44;100639.97;5105008;28;20024;-72
2022/06/05 04:28:48;;;;;;;4.25;2.03;;;;;;;26.86;53.55;100639.16;5101983;28;20427;-72
2022/06/05 04:31:28;;;;;;;4.55;2.33;;;;;;;26.85;53.68;100633.00;5106223;28;20032;-72
2022/06/05 04:33:56;;;;;;;6.82;2.28;;;;;;;26.86;53.84;100636.50;5099195;28;20046;-72
2022/06/05 04:36:22;;;;;;;4.68;2.50;;;;;;;26.86;53.76;100637.28;5104453;28;20416;-72
2022/06/05 04:38:48;;;;;;;4.25;2.60;;;;;;;26.87;53.84;100638.09;5103673;28;20039;-72
2022/06/05 04:41:15;;;;;;;4.30;2.83;;;;;;;26.87;53.55;100635.44;5094890;28;20459;-72
2022/06/05 04:43:41;;;;;;;3.67;2.55;;;;;;;26.88;53.67;100639.72;5095633;28;20026;-70
2022/06/05 04:46:07;;;;;;;6.03;2.70;;;;;;;26.86;53.39;100629.28;5102177;28;20031;-71
2022/06/05 04:48:33;;;;;;;5.50;2.53;;;;;;;26.88;53.53;100637.03;5095934;28;20036;-72
2022/06/05 04:51:02;;;;;;;3.72;2.33;;;;;;;26.87;53.71;100625.53;5097170;28;20495;-72
2022/06/05 04:53:27;;;;;;;4.65;2.78;;;;;;;26.87;53.41;100619.41;5094620;28;20483;-71
2022/06/05 04:55:53;;;;;;;10.43;3.35;;;;;;;26.88;53.40;100610.31;5102203;28;20105;-72
2022/06/05 04:58:18;;;;;;;5.63;3.00;;;;;;;26.87;53.59;100598.00;5095583;28;20413;-72
2022/06/05 05:00:44;;;;;;;4.22;2.85;;;;;;;26.88;53.45;100583.59;5094499;28;20311;-71
2022/06/05 05:03:09;;;;;;;7.18;2.90;;;;;;;26.88;53.46;100580.91;5092038;28;20108;-72
2022/06/05 05:05:35;;;;;;;4.60;2.83;;;;;;;26.88;53.44;100587.06;5093483;28;20027;-72
2022/06/05 05:08:01;;;;;;;4.90;3.10;;;;;;;26.89;53.31;100588.69;5086451;28;20040;-72
2022/06/05 05:10:26;;;;;;;3.20;2.65;;;;;;;26.89;53.25;100590.53;5089590;28;20038;-73
2022/06/05 05:12:52;;;;;;;5.55;2.97;;;;;;;26.89;53.51;100593.22;5094318;28;20047;-72
2022/06/05 05:15:18;;;;;;;4.38;2.40;;;;;;;26.91;53.50;100583.09;5076562;28;20031;-71
2022/06/05 05:17:43;;;;;;;3.85;2.67;;;;;;;26.91;53.36;100585.75;5092544;28;20032;-73
2022/06/05 05:20:10;;;;;;;4.22;2.65;;;;;;;26.91;53.31;100586.56;5084455;28;20040;-71
2022/06/05 05:22:37;;;;;;;4.03;2.33;;;;;;;26.92;53.33;100593.53;5090636;28;20027;-71
2022/06/05 05:25:08;;;;;;;3.95;2.60;;;;;;;26.92;53.66;100592.72;5093958;28;20036;-71
2022/06/05 05:27:35;;;;;;;5.53;2.80;;;;;;;26.93;53.46;100597.00;5088010;28;20040;-71
2022/06/05 05:30:02;;;;;;;4.78;2.47;;;;;;;26.93;53.53;100610.38;5092612;28;20051;-71
2022/06/05 05:32:27;;;;;;;5.40;2.90;;;;;;;26.92;53.65;100606.91;5084981;28;20032;-71
2022/06/05 05:34:53;;;;;;;5.68;2.72;;;;;;;26.92;53.54;100606.91;5103217;28;20027;-72
2022/06/05 05:37:18;;;;;;;6.70;2.72;;;;;;;26.92;53.68;100606.09;5103214;28;20406;-71
2022/06/05 05:42:30;;;;;;;4.35;2.28;;;;;;;26.90;53.81;100608.22;5098002;28;20135;-71
2022/06/05 05:44:56;;;;;;;5.32;2.25;;;;;;;26.90;53.91;100614.34;5106039;28;20306;-71
2022/06/05 05:47:25;;;;;;;4.63;2.63;;;;;;;26.90;53.62;100613.56;5100414;28;20305;-72
2022/06/05 05:49:52;;;;;;;5.82;3.20;;;;;;;26.90;54.03;100610.88;5102526;28;20034;-71
2022/06/05 05:52:18;;;;;;;7.30;3.95;;;;;;;26.90;54.16;100613.56;5102763;28;20034;-72
2022/06/05 05:54:44;;;;;;;6.13;3.33;;;;;;;26.85;54.30;100608.94;5106093;28;20460;-72
2022/06/05 05:57:10;;;;;;;8.55;4.28;;;;;;;26.86;54.69;100607.09;5098914;28;20317;-72
2022/06/05 05:59:36;;;;;;;8.13;5.13;;;;;;;26.81;54.58;100607.81;5099892;28;20026;-72
2022/06/05 06:02:02;;;;;;;11.23;5.55;;;;;;;26.80;55.17;100608.06;5089292;28;20028;-72
2022/06/05 06:04:27;;;;;;;8.88;5.30;;;;;;;26.76;55.23;100595.19;5103053;28;20028;-72
2022/06/05 06:06:53;;;;;;;7.35;4.55;;;;;;;26.73;55.43;100609.06;5093913;28;20054;-72
2022/06/05 06:09:19;;;;;;;7.82;3.88;;;;;;;26.72;55.61;100622.66;5105519;28;20032;-71
2022/06/05 06:11:46;;;;;;;6.85;3.92;;;;;;;26.70;55.08;100646.16;5103916;28;20056;-71
2022/06/05 06:14:11;;;;;;;6.65;4.30;;;;;;;26.68;55.78;100641.06;5108908;28;20027;-73
2022/06/05 06:16:37;;;;;;;6.38;4.30;;;;;;;26.68;55.82;100635.72;5104846;28;20510;-72
2022/06/05 06:19:03;;;;;;;8.10;4.68;;;;;;;26.66;55.96;100637.81;5105073;28;20096;-72
2022/06/05 06:21:29;;;;;;;9.05;4.30;;;;;;;26.65;55.90;100644.22;5098517;28;20020;-72
2022/06/05 06:23:55;;;;;;;12.50;4.22;;;;;;;26.64;56.02;100642.59;5103319;28;20032;-71
2022/06/05 06:26:20;;;;;;;6.90;4.30;;;;;;;26.67;55.96;100639.44;5104852;28;20161;-71
2022/06/05 06:28:46;;;;;;;6.65;4.18;;;;;;;26.71;55.98;100642.44;5103449;28;20476;-71
2022/06/05 06:31:14;;;;;;;8.43;4.00;;;;;;;26.74;56.48;100649.97;5095757;28;20028;-72
2022/06/05 06:33:40;;;;;;;8.05;4.05;;;;;;;26.76;56.47;100643.31;5104130;28;20032;-72
2022/06/05 06:36:09;;;;;;;10.07;3.85;;;;;;;26.78;56.87;100633.19;5078349;28;20020;-72
2022/06/05 06:38:34;;;;;;;10.23;3.92;;;;;;;26.81;57.29;100652.44;5091579;28;20032;-71
2022/06/05 06:41:01;;;;;;;17.60;6.53;;;;;;;26.82;57.76;100657.56;5093190;28;20074;-73
2022/06/05 06:43:27;;;;;;;16.13;7.03;;;;;;;26.83;57.94;100661.03;5105823;28;20035;-72
2022/06/05 06:45:52;;;;;;;12.25;7.90;;;;;;;26.86;58.48;100663.22;5105337;28;20445;-72
2022/06/05 06:48:17;;;;;;;10.80;6.30;;;;;;;26.86;57.82;100657.88;5110516;28;20038;-73
2022/06/05 06:50:43;;;;;;;8.93;4.75;;;;;;;26.84;57.20;100666.13;5096210;28;20024;-73
2022/06/05 06:53:09;;;;;;;7.15;4.95;;;;;;;26.83;56.94;100661.03;5105312;28;20024;-73
2022/06/05 06:55:35;;;;;;;9.65;5.10;;;;;;;26.83;56.83;100666.38;5102253;28;20053;-73
2022/06/05 06:58:01;;;;;;;12.38;4.78;;;;;;;26.83;56.50;100669.06;5100272;28;20120;-73
2022/06/05 07:00:26;;;;;;;9.52;5.03;;;;;;;26.83;56.57;100667.19;5092014;28;20023;-72
2022/06/05 07:02:52;;;;;;;8.10;5.18;;;;;;;26.83;56.64;100674.41;5107647;28;20111;-73
2022/06/05 07:05:17;;;;;;;6.70;4.47;;;;;;;26.82;56.49;100670.09;5107866;28;20180;-72
2022/06/05 07:07:42;;;;;;;8.35;5.85;;;;;;;26.81;56.39;100668.50;5104063;28;20031;-72
2022/06/05 07:10:08;;;;;;;8.25;5.38;;;;;;;26.80;56.34;100675.69;5104801;28;20080;-72
2022/06/05 07:12:35;;;;;;;8.07;4.72;;;;;;;26.80;56.46;100672.22;5108324;28;20088;-73
2022/06/05 07:15:02;;;;;;;12.85;5.57;;;;;;;26.83;56.15;100675.22;5100665;28;20051;-72
2022/06/05 07:17:28;;;;;;;9.40;6.32;;;;;;;26.83;56.38;100672.53;5103919;28;20106;-73
2022/06/05 07:19:53;;;;;;;10.50;5.05;;;;;;;26.84;56.26;100676.03;5109683;28;20223;-72
2022/06/05 07:22:19;;;;;;;9.88;4.88;;;;;;;26.86;56.01;100673.91;5107152;28;20031;-73
2022/06/05 07:24:44;;;;;;;6.45;4.82;;;;;;;26.87;56.00;100675.53;5108193;28;20447;-73
2022/06/05 07:27:09;;;;;;;13.80;6.53;;;;;;;26.88;55.94;100669.94;5104216;28;20063;-73
2022/06/05 07:29:35;;;;;;;6.53;5.18;;;;;;;26.89;55.93;100662.72;5109573;28;20535;-73
2022/06/05 07:32:01;;;;;;;6.88;4.72;;;;;;;26.90;55.83;100653.66;5106601;27;20020;-73
2022/06/05 07:34:26;;;;;;;10.43;5.13;;;;;;;26.90;56.09;100646.44;5107961;28;20035;-72
2022/06/05 07:36:51;;;;;;;11.00;5.15;;;;;;;26.92;56.13;100649.69;5105701;28;20024;-72
2022/06/05 07:39:17;;;;;;;9.80;4.88;;;;;;;26.94;56.06;100646.75;5108271;28;20036;-73
2022/06/05 07:41:42;;;;;;;13.35;4.47;;;;;;;26.95;55.87;100643.81;5106113;28;20069;-72
2022/06/05 07:44:08;;;;;;;8.75;4.78;;;;;;;26.97;55.82;100639.03;5106612;28;20027;-72
2022/06/05 07:46:35;;;;;;;8.82;4.88;;;;;;;26.99;56.14;100638.81;5099905;27;20385;-72
2022/06/05 07:49:01;;;;;;;6.40;4.57;;;;;;;27.01;55.74;100629.47;5106704;28;20427;-72
2022/06/05 07:54:30;;;;;;;7.85;4.88;;;;;;;27.00;55.93;100621.69;5109918;28;20038;-71
2022/06/05 07:57:07;;;;;;;8.13;4.88;;;;;;;26.99;55.59;100617.41;5109306;28;20032;-73
2022/06/05 07:59:36;;;;;;;6.78;5.20;;;;;;;27.00;55.62;100619.03;5109504;28;20073;-72
2022/06/05 08:02:05;;;;;;;5.25;4.75;;;;;;;27.00;55.84;100611.00;5108484;28;20057;-73
2022/06/05 08:04:32;;;;;;;5.97;3.92;;;;;;;27.00;55.62;100616.34;5108206;28;20042;-72
2022/06/05 08:06:59;;;;;;;6.95;4.57;;;;;;;26.98;55.79;100605.09;5108376;28;20104;-72
2022/06/05 08:09:26;;;;;;;9.00;4.95;;;;;;;26.97;55.63;100612.31;5108553;28;20035;-73
2022/06/05 08:11:51;;;;;;;6.95;4.78;;;;;;;26.98;55.59;100621.94;5101679;28;20065;-71
2022/06/05 08:14:17;;;;;;;6.65;4.68;;;;;;;26.97;55.65;100596.28;5108321;28;20475;-72
2022/06/05 08:16:44;;;;;;;7.47;4.72;;;;;;;26.99;55.46;100609.38;5108885;28;20036;-73
2022/06/05 08:19:11;;;;;;;10.85;4.30;;;;;;;27.00;55.55;100601.13;5109462;28;20535;-73
2022/06/05 08:21:38;;;;;;;6.53;4.57;;;;;;;26.99;55.71;100599.50;5108377;28;20027;-72
2022/06/05 08:24:04;;;;;;;5.45;4.18;;;;;;;27.00;55.67;100597.63;5107841;28;20110;-72
2022/06/05 08:26:30;;;;;;;6.38;4.95;;;;;;;27.00;55.69;100609.13;5109771;28;20031;-73
2022/06/05 08:28:55;;;;;;;6.97;4.88;;;;;;;27.00;55.73;100600.31;5108740;28;20047;-72
2022/06/05 08:31:21;;;;;;;5.70;4.50;;;;;;;26.99;55.59;100604.84;5109254;28;20378;-73
2022/06/05 08:33:46;;;;;;;7.85;4.90;;;;;;;27.01;55.44;100597.38;5107345;28;20030;-73
2022/06/05 08:36:12;;;;;;;5.57;4.43;;;;;;;27.01;55.47;100588.56;5108574;28;20030;-72
2022/06/05 08:41:27;;;;;;;7.18;5.03;;;;;;;27.00;55.67;100577.06;5101849;28;20173;-71
2022/06/05 08:44:05;;;;;;;5.32;4.72;;;;;;;27.02;55.53;100591.00;5107520;28;20036;-73
2022/06/05 08:46:55;;;;;;;4.95;4.53;;;;;;;27.04;55.41;100586.19;5104248;28;20062;-73
2022/06/05 08:49:47;;;;;;;7.70;4.55;;;;;;;27.04;55.55;100583.53;5108311;28;20075;-73
2022/06/05 08:52:18;;;;;;;8.68;4.78;;;;;;;27.06;55.44;100577.94;5105319;28;20038;-73
2022/06/05 08:55:06;;;;;;;7.70;4.82;;;;;;;27.07;55.70;100587.56;5102213;28;20024;-72
2022/06/05 08:57:35;;;;;;;6.80;4.80;;;;;;;27.06;55.65;100576.06;5107174;28;20052;-72
2022/06/05 09:00:19;;;;;;;5.10;4.60;;;;;;;27.04;55.46;100578.19;5104645;28;20104;-72
2022/06/05 09:02:58;;;;;;;6.97;5.40;;;;;;;27.04;56.10;100578.19;5107254;28;20039;-73
2022/06/05 09:05:34;;;;;;;7.05;5.68;;;;;;;27.05;56.04;100568.28;5105664;28;20027;-72
2022/06/05 09:08:04;;;;;;;8.82;5.57;;;;;;;27.08;56.17;100562.44;5107214;28;20069;-73
2022/06/05 09:10:35;;;;;;;6.60;5.45;;;;;;;27.10;56.06;100560.31;5107429;28;20383;-73
2022/06/05 09:13:11;;;;;;;10.27;7.03;;;;;;;27.10;56.32;100557.66;5106992;28;20461;-72
2022/06/05 09:15:42;;;;;;;6.60;5.93;;;;;;;27.10;56.21;100554.97;5106634;28;20128;-72
2022/06/05 09:18:16;;;;;;;6.43;5.80;;;;;;;27.09;56.21;100553.34;5108004;28;20037;-73
2022/06/05 09:20:48;;;;;;;9.10;5.80;;;;;;;27.09;56.25;100548.00;5108551;28;20119;-72
2022/06/05 09:23:36;;;;;;;8.25;6.70;;;;;;;27.07;56.20;100540.25;5106923;28;20034;-72
2022/06/05 09:26:17;;;;;;;7.25;5.32;;;;;;;27.07;56.24;100544.78;5107513;28;20039;-73
2022/06/05 09:29:01;;;;;;;8.88;5.93;;;;;;;27.10;56.28;100538.94;5107064;28;20495;-73
2022/06/05 09:31:29;;;;;;;8.07;6.10;;;;;;;27.09;56.16;100537.31;5103490;28;20206;-72
2022/06/05 09:33:58;;;;;;;8.40;5.82;;;;;;;27.12;56.34;100531.47;5107014;28;20047;-72
2022/06/05 09:36:27;;;;;;;7.00;5.75;;;;;;;27.15;56.29;100532.84;5106330;28;20039;-72
2022/06/05 09:39:45;;;;;;;9.32;5.93;;;;;;;27.16;56.41;100543.28;5106561;28;20071;-72
2022/06/05 09:42:36;;;;;;;8.60;4.65;;;;;;;27.17;56.16;100528.84;5085401;28;20064;-72
2022/06/05 09:45:42;;;;;;;6.40;5.80;;;;;;;27.18;56.19;100533.13;5107683;28;20456;-72
2022/06/05 09:48:33;;;;;;;4.80;4.40;;;;;;;27.16;56.15;100532.59;5075787;28;20082;-72
2022/06/05 09:51:00;;;;;;;6.57;5.28;;;;;;;27.17;56.35;100525.38;5107603;28;20502;-72
2022/06/05 09:53:55;;;;;;;7.60;5.93;;;;;;;27.16;55.99;100524.56;5106332;28;20035;-72
2022/06/05 09:56:31;;;;;;;10.70;5.65;;;;;;;27.16;56.09;100523.75;5107174;28;20035;-73
2022/06/05 09:59:17;;;;;;;7.50;5.70;;;;;;;27.17;56.03;100514.66;5107094;28;20463;-72
2022/06/05 10:01:54;;;;;;;6.50;4.80;;;;;;;27.22;55.70;100512.03;5099909;28;20055;-73
2022/06/05 10:04:21;;;;;;;5.10;4.70;;;;;;;27.24;55.33;100505.38;5103597;28;20042;-73
2022/06/05 10:06:54;;;;;;;6.53;5.35;;;;;;;27.26;55.44;100500.59;5107777;28;20027;-71
2022/06/05 10:09:24;;;;;;;8.35;5.32;;;;;;;27.28;55.72;100503.00;5106712;28;20043;-73
2022/06/05 10:11:59;;;;;;;11.30;5.93;;;;;;;27.28;55.42;100498.47;5099857;28;20445;-72
2022/06/05 10:14:44;;;;;;;8.63;5.20;;;;;;;27.26;55.50;100484.53;5106286;28;20054;-73
2022/06/05 10:17:36;;;;;;;7.28;5.63;;;;;;;27.24;55.48;100480.50;5097167;28;20032;-72
2022/06/05 10:20:13;;;;;;;6.53;4.95;;;;;;;27.24;55.71;100481.31;5102837;28;20150;-72
2022/06/05 10:22:57;;;;;;;10.13;5.75;;;;;;;27.24;55.66;100473.28;5111942;28;20372;-72
2022/06/05 10:25:44;;;;;;;12.32;5.63;;;;;;;27.28;55.57;100474.41;5110451;28;20107;-72
2022/06/05 10:28:12;;;;;;;8.50;5.00;;;;;;;27.30;55.28;100471.47;5103907;28;20067;-73
2022/06/05 10:30:59;;;;;;;9.27;4.80;;;;;;;27.30;55.45;100464.25;5111531;28;20027;-72
2022/06/05 10:33:39;;;;;;;5.07;4.57;;;;;;;27.30;55.36;100463.44;5105585;28;20458;-73
2022/06/05 10:36:20;;;;;;;7.18;5.05;;;;;;;27.28;55.27;100458.34;5110003;27;20032;-72
2022/06/05 10:39:11;;;;;;;6.95;4.80;;;;;;;27.28;55.34;100461.03;5111222;28;20035;-73
2022/06/05 10:41:44;;;;;;;5.85;5.05;;;;;;;27.28;55.54;100461.03;5105494;28;20608;-73
2022/06/05 10:44:24;;;;;;;8.32;5.28;;;;;;;27.28;55.57;100455.66;5110803;28;20438;-73
2022/06/05 10:47:17;;;;;;;7.18;5.10;;;;;;;27.29;55.62;100449.25;5111317;28;20038;-73
2022/06/05 10:49:48;;;;;;;7.25;5.50;;;;;;;27.34;55.29;100437.81;5107391;28;20360;-72
2022/06/05 10:52:40;;;;;;;10.02;5.18;;;;;;;27.35;55.30;100434.06;5108387;28;20036;-73
2022/06/05 10:55:17;;;;;;;7.68;5.47;;;;;;;27.35;54.95;100434.06;5109775;28;20076;-72
2022/06/05 10:57:53;;;;;;;9.35;5.97;;;;;;;27.34;55.24;100435.94;5108552;28;20023;-72
2022/06/05 11:00:22;;;;;;;6.25;4.47;;;;;;;27.35;55.40;100431.38;5109191;28;20042;-73
2022/06/05 11:03:09;;;;;;;5.80;5.07;;;;;;;27.35;55.29;100426.84;5104601;28;20051;-73
2022/06/05 11:05:50;;;;;;;7.50;5.15;;;;;;;27.37;55.15;100416.69;5110089;28;20066;-73
2022/06/05 11:08:23;;;;;;;9.52;5.40;;;;;;;27.40;54.88;100416.19;5110197;28;20142;-72
2022/06/05 11:14:37;;;;;;;7.63;5.10;;;;;;;27.39;54.86;100411.09;5105068;28;20045;-72
2022/06/05 11:17:23;;;;;;;8.50;5.07;;;;;;;27.40;54.92;100396.66;5105087;28;20039;-72
2022/06/05 11:20:13;;;;;;;8.60;5.35;;;;;;;27.39;54.82;100393.16;5102709;28;20134;-73
2022/06/05 11:22:46;;;;;;;8.45;5.50;;;;;;;27.40;55.00;100389.44;5107948;28;20040;-72
2022/06/05 11:25:11;;;;;;;10.00;5.80;;;;;;;27.40;54.72;100394.78;5109827;28;20032;-72
2022/06/05 11:27:41;;;;;;;7.00;5.28;;;;;;;27.39;54.73;100395.03;5109555;28;20043;-72
2022/06/05 11:30:41;;;;;;;8.00;5.22;;;;;;;27.37;54.74;100395.28;5109671;28;20034;-73
2022/06/05 11:33:28;;;;;;;7.53;5.05;;;;;;;27.35;54.97;100392.06;5105121;28;20038;-73
2022/06/05 11:36:17;;;;;;;5.50;4.32;;;;;;;27.36;54.66;100382.19;5104823;28;20027;-72
2022/06/05 11:39:02;;;;;;;8.75;4.90;;;;;;;27.40;54.38;100380.59;5109149;28;20040;-72
2022/06/05 11:41:36;;;;;;;9.40;5.35;;;;;;;27.44;54.38;100373.66;5108192;28;20027;-72
2022/06/05 11:44:15;;;;;;;7.57;4.50;;;;;;;27.43;54.18;100377.38;5102907;28;20065;-74
2022/06/05 11:46:56;;;;;;;5.80;4.22;;;;;;;27.40;53.76;100383.28;5109683;28;20040;-73
2022/06/05 11:49:30;;;;;;;15.07;4.95;;;;;;;27.38;53.68;100404.13;5110037;28;20031;-73
2022/06/05 11:52:22;;;;;;;11.02;3.75;;;;;;;27.36;52.97;100387.53;5107598;28;20084;-73
2022/06/05 11:55:03;;;;;;;8.55;4.00;;;;;;;27.38;53.20;100386.22;5109142;28;20032;-72
2022/06/05 11:58:10;;;;;;;9.93;3.65;;;;;;;27.41;52.99;100398.25;5109330;28;20042;-71
2022/06/05 12:00:58;;;;;;;8.35;3.20;;;;;;;27.38;53.13;100383.53;5003320;28;20058;-73
2022/06/05 12:03:34;;;;;;;10.95;3.28;;;;;;;27.38;52.80;100388.06;5006694;28;20041;-73